createdAt,value
2018-05-29T03:01:10.269Z,16.84
2018-05-29T03:02:10.869Z,16.84
2018-05-29T03:03:08.794Z,16.76
2018-05-29T03:04:08.882Z,16.78
2018-05-29T03:05:09.141Z,16.75
2018-05-29T03:06:09.200Z,16.69
2018-05-29T03:07:09.439Z,16.61
2018-05-29T03:08:09.491Z,16.60
2018-05-29T03:09:09.717Z,16.53
2018-05-29T03:10:10.072Z,16.58
2018-05-29T03:11:10.048Z,16.61
2018-05-29T03:12:10.357Z,16.50
2018-05-29T03:13:10.533Z,16.57
2018-05-29T03:14:10.636Z,16.35
2018-05-29T03:15:10.800Z,16.43
2018-05-29T03:16:11.022Z,16.46
2018-05-29T03:17:11.109Z,16.33
2018-05-29T03:18:11.340Z,16.46
2018-05-29T03:19:11.550Z,16.47
2018-05-29T03:20:11.742Z,16.36
2018-05-29T03:21:11.901Z,16.49
2018-05-29T03:22:12.150Z,16.41
2018-05-29T03:23:12.120Z,16.43
2018-05-29T03:24:12.477Z,16.46
2018-05-29T03:25:12.562Z,16.39
2018-05-29T03:26:12.753Z,16.33
2018-05-29T03:27:12.948Z,16.35
2018-05-29T03:28:13.267Z,16.51
2018-05-29T03:29:13.169Z,16.46
2018-05-29T03:30:13.459Z,16.47
2018-05-29T03:31:13.663Z,16.49
2018-05-29T03:32:13.970Z,16.49
2018-05-29T03:33:13.870Z,16.53
2018-05-29T03:34:14.276Z,16.56
2018-05-29T03:35:14.373Z,16.47
2018-05-29T03:36:14.647Z,16.56
2018-05-29T03:37:14.703Z,16.54
2018-05-29T03:38:14.796Z,16.61
2018-05-29T03:39:15.004Z,16.64
2018-05-29T03:40:15.069Z,16.65
2018-05-29T03:41:15.417Z,16.68
2018-05-29T03:42:15.451Z,16.68
2018-05-29T03:43:15.694Z,16.65
2018-05-29T03:44:15.917Z,16.66
2018-05-29T03:45:16.171Z,16.69
2018-05-29T03:46:16.161Z,16.56
2018-05-29T03:47:16.377Z,16.49
2018-05-29T03:48:16.652Z,16.49
2018-05-29T03:49:16.812Z,16.43
2018-05-29T03:50:16.896Z,16.36
2018-05-29T03:51:17.031Z,16.41
2018-05-29T03:52:17.217Z,16.42
2018-05-29T03:53:17.437Z,16.42
2018-05-29T03:54:17.536Z,16.49
2018-05-29T03:55:17.796Z,16.58
2018-05-29T03:56:17.947Z,16.49
2018-05-29T03:57:18.183Z,16.64
2018-05-29T03:58:18.202Z,16.64
2018-05-29T03:59:18.529Z,16.69
2018-05-29T04:00:18.734Z,16.71
2018-05-29T04:01:18.927Z,16.76
2018-05-29T04:02:19.177Z,16.75
2018-05-29T04:03:19.407Z,16.71
2018-05-29T04:04:19.604Z,16.66
2018-05-29T04:05:19.812Z,16.64
2018-05-29T04:06:20.060Z,16.72
2018-05-29T04:07:20.240Z,16.66
2018-05-29T04:08:20.546Z,16.58
2018-05-29T04:09:20.726Z,16.61
2018-05-29T04:10:20.776Z,16.58
2018-05-29T04:11:20.860Z,16.60
2018-05-29T04:12:21.129Z,16.61
2018-05-29T04:13:21.367Z,16.66
2018-05-29T04:14:21.371Z,16.72
2018-05-29T04:15:21.718Z,16.64
2018-05-29T04:16:21.811Z,16.78
2018-05-29T04:17:22.119Z,16.81
2018-05-29T04:18:22.339Z,16.79
2018-05-29T04:19:22.402Z,16.83
2018-05-29T04:20:22.485Z,16.79
2018-05-29T04:21:22.756Z,16.81
2018-05-29T04:22:22.854Z,16.83
2018-05-29T04:23:23.053Z,16.86
2018-05-29T04:24:23.309Z,16.87
2018-05-29T04:25:23.430Z,16.83
2018-05-29T04:26:23.644Z,16.87
2018-05-29T04:27:23.760Z,16.89
2018-05-29T04:28:23.968Z,16.84
2018-05-29T04:29:24.147Z,16.78
2018-05-29T04:30:24.417Z,16.81
2018-05-29T04:31:24.515Z,16.78
2018-05-29T04:32:24.471Z,16.78
2018-05-29T04:33:24.835Z,16.78
2018-05-29T04:34:24.994Z,16.78
2018-05-29T04:35:25.181Z,16.76
2018-05-29T04:36:25.234Z,16.90
2018-05-29T04:37:25.427Z,16.89
2018-05-29T04:38:25.647Z,16.89
2018-05-29T04:39:25.842Z,16.93
2018-05-29T04:40:25.980Z,16.86
2018-05-29T04:41:26.300Z,16.91
2018-05-29T04:42:26.499Z,16.89
2018-05-29T04:43:26.468Z,16.90
2018-05-29T04:44:26.723Z,16.94
2018-05-29T04:45:26.916Z,16.96
2018-05-29T04:46:27.055Z,16.93
2018-05-29T04:47:27.043Z,16.97
2018-05-29T04:48:27.425Z,17.02
2018-05-29T04:49:27.593Z,17.04
2018-05-29T04:50:27.556Z,17.06
2018-05-29T04:51:27.870Z,17.02
2018-05-29T04:52:28.000Z,17.19
2018-05-29T04:53:28.238Z,17.09
2018-05-29T04:54:28.204Z,17.19
2018-05-29T04:55:28.717Z,17.20
2018-05-29T04:56:28.833Z,17.19
2018-05-29T04:57:28.805Z,17.29
2018-05-29T04:58:29.096Z,17.36
2018-05-29T04:59:29.450Z,17.31
2018-05-29T05:00:29.432Z,17.38
2018-05-29T05:01:29.676Z,17.44
2018-05-29T05:02:29.739Z,17.44
2018-05-29T05:03:30.007Z,17.56
2018-05-29T05:04:30.209Z,17.56
2018-05-29T05:05:30.256Z,17.67
2018-05-29T05:06:30.732Z,17.71
2018-05-29T05:07:30.558Z,17.76
2018-05-29T05:08:30.809Z,17.85
2018-05-29T05:09:31.052Z,17.92
2018-05-29T05:10:31.234Z,17.95
2018-05-29T05:11:31.433Z,18.05
2018-05-29T05:12:31.494Z,18.08
2018-05-29T05:13:31.768Z,18.10
2018-05-29T05:14:31.853Z,18.03
2018-05-29T05:15:32.077Z,18.08
2018-05-29T05:16:32.247Z,18.10
2018-05-29T05:17:32.742Z,18.26
2018-05-29T05:18:33.723Z,18.19
2018-05-29T05:19:32.955Z,18.44
2018-05-29T05:20:33.143Z,18.35
2018-05-29T05:21:33.225Z,18.47
2018-05-29T05:22:33.502Z,18.56
2018-05-29T05:23:33.553Z,18.63
2018-05-29T05:24:33.694Z,18.70
2018-05-29T05:25:33.926Z,18.71
2018-05-29T05:26:34.088Z,18.71
2018-05-29T05:27:34.336Z,18.89
2018-05-29T05:28:34.391Z,18.98
2018-05-29T05:29:34.634Z,18.86
2018-05-29T05:30:34.792Z,19.04
2018-05-29T05:31:35.049Z,19.14
2018-05-29T05:32:35.185Z,19.18
2018-05-29T05:33:35.260Z,19.24
2018-05-29T05:34:35.573Z,19.34
2018-05-29T05:35:35.665Z,19.39
2018-05-29T05:36:35.883Z,19.52
2018-05-29T05:37:36.083Z,19.48
2018-05-29T05:38:36.214Z,19.52
2018-05-29T05:39:36.278Z,19.62
2018-05-29T05:40:36.514Z,19.63
2018-05-29T05:41:36.713Z,19.70
2018-05-29T05:42:36.818Z,19.79
2018-05-29T05:43:37.071Z,19.84
2018-05-29T05:44:37.210Z,19.92
2018-05-29T05:45:37.452Z,19.92
2018-05-29T05:46:37.718Z,20.04
2018-05-29T05:47:37.830Z,20.07
2018-05-29T05:48:37.926Z,20.11
2018-05-29T05:49:38.101Z,20.16
2018-05-29T05:50:38.251Z,20.21
2018-05-29T05:51:38.598Z,20.26
2018-05-29T05:52:38.752Z,20.31
2018-05-29T05:53:38.951Z,20.47
2018-05-29T05:54:39.040Z,20.50
2018-05-29T05:55:39.404Z,20.60
2018-05-29T05:56:39.275Z,20.60
2018-05-29T05:57:39.658Z,20.70
2018-05-29T05:58:39.963Z,20.78
2018-05-29T05:59:39.961Z,20.74
2018-05-29T06:00:40.234Z,20.90
2018-05-29T06:01:40.335Z,21.02
2018-05-29T06:02:40.463Z,21.02
2018-05-29T06:03:40.789Z,21.00
2018-05-29T06:04:40.907Z,21.07
2018-05-29T06:05:41.039Z,21.15
2018-05-29T06:06:41.221Z,21.15
2018-05-29T06:07:41.293Z,21.25
2018-05-29T06:08:41.522Z,21.39
2018-05-29T06:09:41.656Z,21.40
2018-05-29T06:10:41.883Z,21.46
2018-05-29T06:11:42.120Z,21.45
2018-05-29T06:12:42.231Z,21.50
2018-05-29T06:13:42.528Z,21.55
2018-05-29T06:14:42.513Z,21.61
2018-05-29T06:15:42.784Z,21.70
2018-05-29T06:16:43.018Z,21.73
2018-05-29T06:17:43.186Z,21.85
2018-05-29T06:18:43.448Z,21.89
2018-05-29T06:19:43.544Z,21.96
2018-05-29T06:20:43.802Z,22.02
2018-05-29T06:21:44.070Z,22.11
2018-05-29T06:22:44.074Z,22.10
2018-05-29T06:23:44.286Z,22.25
2018-05-29T06:24:44.529Z,22.36
2018-05-29T06:25:45.244Z,22.36
2018-05-29T06:26:45.016Z,22.47
2018-05-29T06:27:45.017Z,22.57
2018-05-29T06:28:45.303Z,22.47
2018-05-29T06:29:45.444Z,22.53
2018-05-29T06:30:45.695Z,22.48
2018-05-29T06:31:45.859Z,22.57
2018-05-29T06:32:46.103Z,22.63
2018-05-29T06:33:46.179Z,22.81
2018-05-29T06:34:46.362Z,22.78
2018-05-29T06:35:46.614Z,22.84
2018-05-29T06:36:46.656Z,22.84
2018-05-29T06:37:46.872Z,22.98
2018-05-29T06:38:47.003Z,23.03
2018-05-29T06:39:47.259Z,23.03
2018-05-29T06:40:47.288Z,23.10
2018-05-29T06:41:47.582Z,23.23
2018-05-29T06:42:47.716Z,23.21
2018-05-29T06:43:47.864Z,23.41
2018-05-29T06:44:48.029Z,23.50
2018-05-29T06:45:48.251Z,23.47
2018-05-29T06:46:48.389Z,23.55
2018-05-29T06:47:48.515Z,23.58
2018-05-29T06:48:48.696Z,23.73
2018-05-29T06:49:48.757Z,23.77
2018-05-29T06:50:48.978Z,23.83
2018-05-29T06:51:49.098Z,23.87
2018-05-29T06:52:49.380Z,23.91
2018-05-29T06:53:49.566Z,24.01
2018-05-29T06:54:49.712Z,23.96
2018-05-29T06:55:49.905Z,24.02
2018-05-29T06:56:50.023Z,24.17
2018-05-29T06:57:50.248Z,24.23
2018-05-29T06:58:50.353Z,24.28
2018-05-29T06:59:50.690Z,24.16
2018-05-29T07:00:50.856Z,24.28
2018-05-29T07:01:51.002Z,24.36
2018-05-29T07:02:51.158Z,24.47
2018-05-29T07:03:51.296Z,24.51
2018-05-29T07:04:51.504Z,24.69
2018-05-29T07:05:51.638Z,24.81
2018-05-29T07:06:51.844Z,24.80
2018-05-29T07:07:51.952Z,24.89
2018-05-29T07:08:52.175Z,24.70
2018-05-29T07:09:52.302Z,24.88
2018-05-29T07:10:52.464Z,24.88
2018-05-29T07:11:52.620Z,24.88
2018-05-29T07:12:52.813Z,25.13
2018-05-29T07:13:52.933Z,25.13
2018-05-29T07:14:53.086Z,25.16
2018-05-29T07:15:53.275Z,25.31
2018-05-29T07:16:53.451Z,25.26
2018-05-29T07:17:53.547Z,25.17
2018-05-29T07:18:53.768Z,25.28
2018-05-29T07:19:53.949Z,25.28
2018-05-29T07:20:54.143Z,25.33
2018-05-29T07:21:54.359Z,25.44
2018-05-29T07:22:54.524Z,25.58
2018-05-29T07:23:54.601Z,25.68
2018-05-29T07:24:54.794Z,25.68
2018-05-29T07:25:54.971Z,25.77
2018-05-29T07:26:55.169Z,25.95
2018-05-29T07:27:55.372Z,25.93
2018-05-29T07:28:55.497Z,25.95
2018-05-29T07:29:55.607Z,26.05
2018-05-29T07:30:55.866Z,26.10
2018-05-29T07:31:56.005Z,26.13
2018-05-29T07:32:56.137Z,26.28
2018-05-29T07:33:56.321Z,26.18
2018-05-29T07:34:56.482Z,26.28
2018-05-29T07:35:56.654Z,26.36
2018-05-29T07:36:56.783Z,26.22
2018-05-29T07:37:56.978Z,26.33
2018-05-29T07:38:57.201Z,26.38
2018-05-29T07:39:57.381Z,26.25
2018-05-29T07:40:57.569Z,26.26
2018-05-29T07:41:57.691Z,26.40
2018-05-29T07:42:57.845Z,26.44
2018-05-29T07:43:58.114Z,26.53
2018-05-29T07:44:58.197Z,26.53
2018-05-29T07:45:58.335Z,26.48
2018-05-29T07:46:58.466Z,26.53
2018-05-29T07:47:58.698Z,26.52
2018-05-29T07:48:58.888Z,26.55
2018-05-29T07:49:58.966Z,26.55
2018-05-29T07:50:59.125Z,26.58
2018-05-29T07:51:59.376Z,26.53
2018-05-29T07:52:59.525Z,26.66
2018-05-29T07:53:59.629Z,26.73
2018-05-29T07:54:59.817Z,26.90
2018-05-29T07:56:00.024Z,27.05
2018-05-29T07:57:00.148Z,27.15
2018-05-29T07:58:00.418Z,27.08
2018-05-29T07:59:00.485Z,27.22
2018-05-29T08:00:00.700Z,27.18
2018-05-29T08:01:00.835Z,27.18
2018-05-29T08:02:01.047Z,27.22
2018-05-29T08:03:01.147Z,27.25
2018-05-29T08:04:01.391Z,27.49
2018-05-29T08:05:01.519Z,27.55
2018-05-29T08:06:01.709Z,27.68
2018-05-29T08:07:01.866Z,27.85
2018-05-29T08:08:02.042Z,28.10
2018-05-29T08:09:02.194Z,28.27
2018-05-29T08:10:02.409Z,28.44
2018-05-29T08:11:02.505Z,28.57
2018-05-29T08:12:02.706Z,28.81
2018-05-29T08:13:02.829Z,29.13
2018-05-29T08:14:03.018Z,29.07
2018-05-29T08:15:03.189Z,29.35
2018-05-29T08:16:03.353Z,29.60
2018-05-29T08:17:03.499Z,29.81
2018-05-29T08:18:03.668Z,30.09
2018-05-29T08:19:03.856Z,30.15
2018-05-29T08:20:04.071Z,30.12
2018-05-29T08:21:04.266Z,30.19
2018-05-29T08:22:04.351Z,29.94
2018-05-29T08:23:04.561Z,30.34
2018-05-29T08:24:04.729Z,30.68
2018-05-29T08:25:04.952Z,30.75
2018-05-29T08:26:05.107Z,31.00
2018-05-29T08:27:05.237Z,31.25
2018-05-29T08:28:05.401Z,31.51
2018-05-29T08:29:05.623Z,31.39
2018-05-29T08:30:05.747Z,31.70
2018-05-29T08:31:05.986Z,31.74
2018-05-29T08:32:06.104Z,31.94
2018-05-29T08:33:06.313Z,31.54
2018-05-29T08:34:06.425Z,31.52
2018-05-29T08:35:06.611Z,31.61
2018-05-29T08:36:06.828Z,31.55
2018-05-29T08:37:06.987Z,31.66
2018-05-29T08:38:07.159Z,31.71
2018-05-29T08:39:07.381Z,31.77
2018-05-29T08:40:07.577Z,31.89
2018-05-29T08:41:07.704Z,31.93
2018-05-29T08:42:07.863Z,31.93
2018-05-29T08:43:08.032Z,31.78
2018-05-29T08:44:08.192Z,31.51
2018-05-29T08:45:08.387Z,31.55
2018-05-29T08:46:08.601Z,31.21
2018-05-29T08:47:08.760Z,31.24
2018-05-29T08:48:08.924Z,31.00
2018-05-29T08:49:09.135Z,30.91
2018-05-29T08:50:09.247Z,30.83
2018-05-29T08:51:09.379Z,30.70
2018-05-29T08:52:09.583Z,30.62
2018-05-29T08:53:09.755Z,30.47
2018-05-29T08:54:09.967Z,30.37
2018-05-29T08:55:10.135Z,30.05
2018-05-29T08:56:10.255Z,30.09
2018-05-29T08:57:10.434Z,29.97
2018-05-29T08:58:10.654Z,30.03
2018-05-29T08:59:10.811Z,30.10
2018-05-29T09:00:10.942Z,30.13
2018-05-29T09:01:11.160Z,30.12
2018-05-29T09:02:11.326Z,30.08
2018-05-29T09:03:11.520Z,30.08
2018-05-29T09:04:11.749Z,30.08
2018-05-29T09:05:11.904Z,30.15
2018-05-29T09:06:12.049Z,30.10
2018-05-29T09:07:12.201Z,30.06
2018-05-29T09:08:12.454Z,30.24
2018-05-29T09:09:12.551Z,30.34
2018-05-29T09:10:12.790Z,30.35
2018-05-29T09:11:12.913Z,30.30
2018-05-29T09:12:13.110Z,30.30
2018-05-29T09:13:13.367Z,30.39
2018-05-29T09:14:13.404Z,30.47
2018-05-29T09:15:13.578Z,30.59
2018-05-29T09:16:13.805Z,30.59
2018-05-29T09:17:13.926Z,30.55
2018-05-29T09:18:14.108Z,30.65
2018-05-29T09:19:14.270Z,30.69
2018-05-29T09:20:14.420Z,30.68
2018-05-29T09:21:14.643Z,30.59
2018-05-29T09:22:14.810Z,30.69
2018-05-29T09:23:14.966Z,30.63
2018-05-29T09:24:15.135Z,30.72
2018-05-29T09:25:15.356Z,30.75
2018-05-29T09:26:15.475Z,30.72
2018-05-29T09:27:15.668Z,30.69
2018-05-29T09:28:15.804Z,30.48
2018-05-29T09:29:16.047Z,30.65
2018-05-29T09:30:16.170Z,30.70
2018-05-29T09:31:16.362Z,30.83
2018-05-29T09:32:16.477Z,30.92
2018-05-29T09:33:16.693Z,31.00
2018-05-29T09:34:16.822Z,31.05
2018-05-29T09:35:17.003Z,31.10
2018-05-29T09:36:17.175Z,31.03
2018-05-29T09:37:17.373Z,31.20
2018-05-29T09:38:17.580Z,31.33
2018-05-29T09:39:17.837Z,31.44
2018-05-29T09:40:17.910Z,31.51
2018-05-29T09:41:18.083Z,31.49
2018-05-29T09:42:18.265Z,31.56
2018-05-29T09:43:18.421Z,31.85
2018-05-29T09:44:18.667Z,31.87
2018-05-29T09:45:18.809Z,31.90
2018-05-29T09:46:18.908Z,31.97
2018-05-29T09:47:19.071Z,31.93
2018-05-29T09:48:19.286Z,31.77
2018-05-29T09:49:19.535Z,31.80
2018-05-29T09:50:19.653Z,31.76
2018-05-29T09:51:19.791Z,31.84
2018-05-29T09:52:20.002Z,31.61
2018-05-29T09:53:20.150Z,31.59
2018-05-29T09:54:20.320Z,31.87
2018-05-29T09:55:20.505Z,32.15
2018-05-29T09:56:20.641Z,32.18
2018-05-29T09:57:20.822Z,32.41
2018-05-29T09:58:20.989Z,32.73
2018-05-29T09:59:21.145Z,32.85
2018-05-29T10:00:21.324Z,32.97
2018-05-29T10:01:21.475Z,33.08
2018-05-29T10:02:21.700Z,33.19
2018-05-29T10:03:21.797Z,33.68
2018-05-29T10:04:21.994Z,34.05
2018-05-29T10:05:22.172Z,33.95
2018-05-29T10:06:22.317Z,34.30
2018-05-29T10:07:22.546Z,34.58
2018-05-29T10:08:22.726Z,34.90
2018-05-29T10:09:22.859Z,35.15
2018-05-29T10:10:23.032Z,35.19
2018-05-29T10:11:23.279Z,35.29
2018-05-29T10:12:23.430Z,35.49
2018-05-29T10:13:23.557Z,35.73
2018-05-29T10:14:23.729Z,35.58
2018-05-29T10:15:23.918Z,35.58
2018-05-29T10:16:24.045Z,35.98
2018-05-29T10:17:24.219Z,36.30
2018-05-29T10:18:24.427Z,36.47
2018-05-29T10:19:24.613Z,36.62
2018-05-29T10:20:24.716Z,36.79
2018-05-29T10:21:24.885Z,37.10
2018-05-29T10:22:25.059Z,37.37
2018-05-29T10:23:25.314Z,37.47
2018-05-29T10:24:25.434Z,37.15
2018-05-29T10:25:25.600Z,36.93
2018-05-29T10:26:25.822Z,36.98
2018-05-29T10:27:25.956Z,37.18
2018-05-29T10:28:26.133Z,37.64
2018-05-29T10:29:26.388Z,37.65
2018-05-29T10:30:26.553Z,38.05
2018-05-29T10:31:26.748Z,37.93
2018-05-29T10:32:26.924Z,37.89
2018-05-29T10:33:27.100Z,37.87
2018-05-29T10:34:27.271Z,38.01
2018-05-29T10:35:27.412Z,38.28
2018-05-29T10:36:27.684Z,38.14
2018-05-29T10:37:27.795Z,37.74
2018-05-29T10:38:27.958Z,37.87
2018-05-29T10:39:28.123Z,37.97
2018-05-29T10:40:28.307Z,38.28
2018-05-29T10:41:28.483Z,38.57
2018-05-29T10:42:28.663Z,38.96
2018-05-29T10:43:28.816Z,38.60
2018-05-29T10:44:29.024Z,38.69
2018-05-29T10:45:29.188Z,38.46
2018-05-29T10:46:29.315Z,38.54
2018-05-29T10:47:29.564Z,38.24
2018-05-29T10:48:29.701Z,38.09
2018-05-29T10:49:29.888Z,37.75
2018-05-29T10:50:30.086Z,38.05
2018-05-29T10:51:30.241Z,38.06
2018-05-29T10:52:30.405Z,38.19
2018-05-29T10:53:30.580Z,38.36
2018-05-29T10:54:30.752Z,38.50
2018-05-29T10:55:31.004Z,38.40
2018-05-29T10:56:31.121Z,38.61
2018-05-29T10:57:31.306Z,38.50
2018-05-29T10:58:31.500Z,38.45
2018-05-29T10:59:31.664Z,38.49
2018-05-29T11:00:31.849Z,38.54
2018-05-29T11:01:32.013Z,37.65
2018-05-29T11:02:32.161Z,37.17
2018-05-29T11:03:32.414Z,36.58
2018-05-29T11:04:32.535Z,35.95
2018-05-29T11:05:32.755Z,35.67
2018-05-29T11:06:32.892Z,35.19
2018-05-29T11:07:33.047Z,34.52
2018-05-29T11:08:33.267Z,34.73
2018-05-29T11:09:33.429Z,35.12
2018-05-29T11:10:33.592Z,35.34
2018-05-29T11:11:33.791Z,35.64
2018-05-29T11:12:33.985Z,35.90
2018-05-29T11:13:34.193Z,36.14
2018-05-29T11:14:34.384Z,36.52
2018-05-29T11:15:34.511Z,36.64
2018-05-29T11:16:34.732Z,36.61
2018-05-29T11:17:34.854Z,36.58
2018-05-29T11:18:35.072Z,36.57
2018-05-29T11:19:35.260Z,36.95
2018-05-29T11:20:35.389Z,37.02
2018-05-29T11:21:35.610Z,37.08
2018-05-29T11:22:35.748Z,37.67
2018-05-29T11:23:35.985Z,38.01
2018-05-29T11:24:36.132Z,38.64
2018-05-29T11:25:36.340Z,38.97
2018-05-29T11:26:36.490Z,38.92
2018-05-29T11:27:36.652Z,39.26
2018-05-29T11:28:36.810Z,39.36
2018-05-29T11:29:37.039Z,39.15
2018-05-29T11:30:37.225Z,39.30
2018-05-29T11:31:37.327Z,39.31
2018-05-29T11:32:37.555Z,39.60
2018-05-29T11:33:37.737Z,39.53
2018-05-29T11:34:37.966Z,39.26
2018-05-29T11:35:38.090Z,38.46
2018-05-29T11:36:38.303Z,37.64
2018-05-29T11:37:38.510Z,36.77
2018-05-29T11:38:38.588Z,36.14
2018-05-29T11:39:38.832Z,36.09
2018-05-29T11:40:38.979Z,35.68
2018-05-29T11:41:39.146Z,35.41
2018-05-29T11:42:39.310Z,36.14
2018-05-29T11:43:39.509Z,36.23
2018-05-29T11:44:39.826Z,36.45
2018-05-29T11:45:39.890Z,36.99
2018-05-29T11:46:40.094Z,37.35
2018-05-29T11:47:40.278Z,37.13
2018-05-29T11:48:40.413Z,36.93
2018-05-29T11:49:40.600Z,36.51
2018-05-29T11:50:40.825Z,36.08
2018-05-29T11:51:40.974Z,35.60
2018-05-29T11:52:41.124Z,35.27
2018-05-29T11:53:41.359Z,34.90
2018-05-29T11:54:41.582Z,34.60
2018-05-29T11:55:41.689Z,34.99
2018-05-29T11:56:41.871Z,34.62
2018-05-29T11:57:42.060Z,34.57
2018-05-29T11:58:42.286Z,34.35
2018-05-29T11:59:42.411Z,33.87
2018-05-29T12:00:42.536Z,33.77
2018-05-29T12:01:42.771Z,33.76
2018-05-29T12:02:42.899Z,34.51
2018-05-29T12:03:43.070Z,35.17
2018-05-29T12:04:43.310Z,35.95
2018-05-29T12:05:43.464Z,36.49
2018-05-29T12:06:43.672Z,36.98
2018-05-29T12:07:43.812Z,37.33
2018-05-29T12:08:44.009Z,37.80
2018-05-29T12:09:44.172Z,37.97
2018-05-29T12:10:44.329Z,38.20
2018-05-29T12:11:44.518Z,38.39
2018-05-29T12:12:44.658Z,37.86
2018-05-29T12:13:44.874Z,37.60
2018-05-29T12:14:45.042Z,36.65
2018-05-29T12:15:45.192Z,35.89
2018-05-29T12:16:45.418Z,35.58
2018-05-29T12:17:45.600Z,35.23
2018-05-29T12:18:45.741Z,34.55
2018-05-29T12:19:45.935Z,34.11
2018-05-29T12:20:46.129Z,34.30
2018-05-29T12:21:46.299Z,34.35
2018-05-29T12:22:46.475Z,34.20
2018-05-29T12:23:46.685Z,33.96
2018-05-29T12:24:46.796Z,33.92
2018-05-29T12:25:46.961Z,33.83
2018-05-29T12:26:47.133Z,34.40
2018-05-29T12:27:47.342Z,34.57
2018-05-29T12:28:47.495Z,34.29
2018-05-29T12:29:47.732Z,34.03
2018-05-29T12:30:47.840Z,34.01
2018-05-29T12:31:48.080Z,33.68
2018-05-29T12:32:48.247Z,33.52
2018-05-29T12:33:48.390Z,33.67
2018-05-29T12:34:48.548Z,33.68
2018-05-29T12:35:48.708Z,34.17
2018-05-29T12:36:48.881Z,34.75
2018-05-29T12:37:49.074Z,35.30
2018-05-29T12:38:49.251Z,35.24
2018-05-29T12:39:49.408Z,34.92
2018-05-29T12:40:49.549Z,34.61
2018-05-29T12:41:49.746Z,34.40
2018-05-29T12:42:49.957Z,34.32
2018-05-29T12:43:50.139Z,33.96
2018-05-29T12:44:50.280Z,33.46
2018-05-29T12:45:50.535Z,33.28
2018-05-29T12:46:50.675Z,33.00
2018-05-29T12:47:50.936Z,32.83
2018-05-29T12:48:51.047Z,32.65
2018-05-29T12:49:51.221Z,32.43
2018-05-29T12:50:51.406Z,32.19
2018-05-29T12:51:51.551Z,32.08
2018-05-29T12:52:51.767Z,31.81
2018-05-29T12:53:51.991Z,31.61
2018-05-29T12:54:52.101Z,31.52
2018-05-29T12:55:52.272Z,31.42
2018-05-29T12:56:52.508Z,31.31
2018-05-29T12:57:52.673Z,31.22
2018-05-29T12:58:52.858Z,31.07
2018-05-29T12:59:53.015Z,30.90
2018-05-29T13:00:53.212Z,30.59
2018-05-29T13:01:53.366Z,30.16
2018-05-29T13:02:53.554Z,29.81
2018-05-29T13:03:53.739Z,29.23
2018-05-29T13:04:53.881Z,28.97
2018-05-29T13:05:54.016Z,28.57
2018-05-29T13:06:54.207Z,28.19
2018-05-29T13:07:54.355Z,28.00
2018-05-29T13:08:54.618Z,27.67
2018-05-29T13:09:54.757Z,27.35
2018-05-29T13:10:54.947Z,26.92
2018-05-29T13:11:55.046Z,26.51
2018-05-29T13:12:55.291Z,26.22
2018-05-29T13:13:55.465Z,26.06
2018-05-29T13:14:55.599Z,25.68
2018-05-29T13:15:55.807Z,25.36
2018-05-29T13:16:55.976Z,25.14
2018-05-29T13:17:56.190Z,24.77
2018-05-29T13:18:56.313Z,24.38
2018-05-29T13:19:56.410Z,23.99
2018-05-29T13:20:56.563Z,23.63
2018-05-29T13:21:56.893Z,23.27
2018-05-29T13:22:56.971Z,22.84
2018-05-29T13:23:57.188Z,22.55
2018-05-29T13:24:57.305Z,22.32
2018-05-29T13:25:57.453Z,22.08
2018-05-29T13:26:57.726Z,21.77
2018-05-29T13:27:57.852Z,21.62
2018-05-29T13:28:58.006Z,21.54
2018-05-29T13:29:58.155Z,21.35
2018-05-29T13:30:58.327Z,21.02
2018-05-29T13:31:58.554Z,20.66
2018-05-29T13:32:58.602Z,20.31
2018-05-29T13:33:58.791Z,20.14
2018-05-29T13:34:58.976Z,19.99
2018-05-29T13:35:59.187Z,19.86
2018-05-29T13:36:59.288Z,19.73
2018-05-29T13:37:59.574Z,19.77
2018-05-29T13:38:59.675Z,19.74
2018-05-29T13:39:59.853Z,19.70
2018-05-29T13:41:00.061Z,19.67
2018-05-29T13:42:00.212Z,19.70
2018-05-29T13:43:00.393Z,19.88
2018-05-29T13:44:00.528Z,19.85
2018-05-29T13:45:00.697Z,20.00
2018-05-29T13:46:00.884Z,19.96
2018-05-29T13:47:00.991Z,19.92
2018-05-29T13:48:01.167Z,20.06
2018-05-29T13:49:01.303Z,20.03
2018-05-29T13:50:01.504Z,20.11
2018-05-29T13:51:01.657Z,20.03
2018-05-29T13:52:01.903Z,20.06
2018-05-29T13:53:02.003Z,20.09
2018-05-29T13:54:02.205Z,20.18
2018-05-29T13:55:02.392Z,20.21
2018-05-29T13:56:02.631Z,20.26
2018-05-29T13:57:02.824Z,20.25
2018-05-29T13:58:02.863Z,20.11
2018-05-29T13:59:03.078Z,20.11
2018-05-29T14:00:03.234Z,19.99
2018-05-29T14:01:03.395Z,19.86
2018-05-29T14:02:03.573Z,19.88
2018-05-29T14:03:03.836Z,19.70
2018-05-29T14:04:03.932Z,19.67
2018-05-29T14:05:04.049Z,19.73
2018-05-29T14:06:04.269Z,19.59
2018-05-29T14:07:04.458Z,19.71
2018-05-29T14:08:04.608Z,19.56
2018-05-29T14:09:04.839Z,19.71
2018-05-29T14:10:04.887Z,19.74
2018-05-29T14:11:05.118Z,19.76
2018-05-29T14:12:05.309Z,19.81
2018-05-29T14:13:05.490Z,19.77
2018-05-29T14:14:05.620Z,19.73
2018-05-29T14:15:05.784Z,19.82
2018-05-29T14:16:05.963Z,19.70
2018-05-29T14:17:06.100Z,19.73
2018-05-29T14:18:06.315Z,19.63
2018-05-29T14:19:06.451Z,19.58
2018-05-29T14:20:06.593Z,19.62
2018-05-29T14:21:06.806Z,19.64
2018-05-29T14:22:06.890Z,19.59
2018-05-29T14:23:07.155Z,19.62
2018-05-29T14:24:07.320Z,19.73
2018-05-29T14:25:07.447Z,19.71
2018-05-29T14:26:07.572Z,19.77
2018-05-29T14:27:07.773Z,19.73
2018-05-29T14:28:07.927Z,19.77
2018-05-29T14:29:08.191Z,19.82
2018-05-29T14:30:08.318Z,19.82
2018-05-29T14:31:08.438Z,19.89
2018-05-29T14:32:08.711Z,19.88
2018-05-29T14:33:08.871Z,19.89
2018-05-29T14:34:08.990Z,19.92
2018-05-29T14:35:09.115Z,20.02
2018-05-29T14:36:09.272Z,20.06
2018-05-29T14:37:09.554Z,20.02
2018-05-29T14:38:09.713Z,20.03
2018-05-29T14:39:09.874Z,20.11
2018-05-29T14:40:09.989Z,20.11
2018-05-29T14:41:10.142Z,20.09
2018-05-29T14:42:10.418Z,20.07
2018-05-29T14:43:10.608Z,20.07
2018-05-29T14:44:10.766Z,20.14
2018-05-29T14:45:10.900Z,20.21
2018-05-29T14:46:11.083Z,20.29
2018-05-29T14:47:11.237Z,20.29
2018-05-29T14:48:11.360Z,20.29
2018-05-29T14:49:11.547Z,20.43
2018-05-29T14:50:11.720Z,20.34
2018-05-29T14:51:11.865Z,20.40
2018-05-29T14:52:12.074Z,20.40
2018-05-29T14:53:12.214Z,20.52
2018-05-29T14:54:12.336Z,20.44
2018-05-29T14:55:12.533Z,20.48
2018-05-29T14:56:12.749Z,20.41
2018-05-29T14:57:12.881Z,20.48
2018-05-29T14:58:13.051Z,20.52
2018-05-29T14:59:13.285Z,20.59
2018-05-29T15:00:13.459Z,20.67
2018-05-29T15:01:13.674Z,20.59
2018-05-29T15:02:13.800Z,20.72
2018-05-29T15:03:13.960Z,20.60
2018-05-29T15:04:14.137Z,20.58
2018-05-29T15:05:14.259Z,20.70
2018-05-29T15:06:14.480Z,20.81
2018-05-29T15:07:14.631Z,20.84
2018-05-29T15:08:14.783Z,20.88
2018-05-29T15:09:14.993Z,20.93
2018-05-29T15:10:15.114Z,20.87
2018-05-29T15:11:15.402Z,20.95
2018-05-29T15:12:15.499Z,20.95
2018-05-29T15:13:15.680Z,20.99
2018-05-29T15:14:15.789Z,20.96
2018-05-29T15:15:16.026Z,20.96
2018-05-29T15:16:16.154Z,20.96
2018-05-29T15:17:16.291Z,21.05
2018-05-29T15:18:16.503Z,21.03
2018-05-29T15:19:16.720Z,21.00
2018-05-29T15:20:16.802Z,21.06
2018-05-29T15:21:16.997Z,21.12
2018-05-29T15:22:17.153Z,21.11
2018-05-29T15:23:17.343Z,21.11
2018-05-29T15:24:17.519Z,21.20
2018-05-29T15:25:17.723Z,21.27
2018-05-29T15:26:17.863Z,21.27
2018-05-29T15:27:18.056Z,21.35
2018-05-29T15:28:18.194Z,21.40
2018-05-29T15:29:18.368Z,21.45
2018-05-29T15:30:18.531Z,21.48
2018-05-29T15:31:18.690Z,21.50
2018-05-29T15:32:18.851Z,21.54
2018-05-29T15:33:19.115Z,21.55
2018-05-29T15:34:19.198Z,21.55
2018-05-29T15:35:19.342Z,21.54
2018-05-29T15:36:19.589Z,21.57
2018-05-29T15:37:19.681Z,21.60
2018-05-29T15:38:19.830Z,21.61
2018-05-29T15:39:19.986Z,21.51
2018-05-29T15:40:20.196Z,21.69
2018-05-29T15:41:20.350Z,21.69
2018-05-29T15:42:20.559Z,21.64
2018-05-29T15:43:20.658Z,21.64
2018-05-29T15:44:20.839Z,21.62
2018-05-29T15:45:21.056Z,21.67
2018-05-29T15:46:21.174Z,21.75
2018-05-29T15:47:21.359Z,21.80
2018-05-29T15:48:21.588Z,21.82
2018-05-29T15:49:21.726Z,21.83
2018-05-29T15:50:21.935Z,21.93
2018-05-29T15:51:22.036Z,21.82
2018-05-29T15:52:22.249Z,21.91
2018-05-29T15:53:22.417Z,21.98
2018-05-29T15:54:22.663Z,22.00
2018-05-29T15:55:22.816Z,22.10